sensor_id;sensor_type;location;lat;lon;timestamp;P1;durP1;ratioP1;P2;durP2;ratioP2
26325;SDS011;14032;52.510;7.342;2023-07-29T00:01:30;17.88;;;13.68;;
26325;SDS011;14032;52.510;7.342;2023-07-29T00:03:56;18.55;;;14.95;;
26325;SDS011;14032;52.510;7.342;2023-07-29T00:06:21;21.10;;;15.82;;
26325;SDS011;14032;52.510;7.342;2023-07-29T00:08:47;21.15;;;15.52;;
26325;SDS011;14032;52.510;7.342;2023-07-29T00:11:12;20.92;;;15.65;;
26325;SDS011;14032;52.510;7.342;2023-07-29T00:13:38;22.85;;;15.07;;
26325;SDS011;14032;52.510;7.342;2023-07-29T00:16:03;18.35;;;14.20;;
26325;SDS011;14032;52.510;7.342;2023-07-29T00:18:29;20.55;;;16.05;;
26325;SDS011;14032;52.510;7.342;2023-07-29T00:20:55;19.10;;;15.27;;
26325;SDS011;14032;52.510;7.342;2023-07-29T00:23:20;17.17;;;13.60;;
26325;SDS011;14032;52.510;7.342;2023-07-29T00:25:46;20.30;;;13.93;;
26325;SDS011;14032;52.510;7.342;2023-07-29T00:28:12;17.17;;;13.82;;
26325;SDS011;14032;52.510;7.342;2023-07-29T00:30:38;16.80;;;13.82;;
26325;SDS011;14032;52.510;7.342;2023-07-29T00:33:03;15.95;;;12.43;;
26325;SDS011;14032;52.510;7.342;2023-07-29T00:35:29;17.10;;;13.75;;
26325;SDS011;14032;52.510;7.342;2023-07-29T00:37:54;19.98;;;15.05;;
26325;SDS011;14032;52.510;7.342;2023-07-29T00:40:21;22.95;;;15.73;;
26325;SDS011;14032;52.510;7.342;2023-07-29T00:42:47;21.13;;;15.00;;
26325;SDS011;14032;52.510;7.342;2023-07-29T00:45:13;19.02;;;13.93;;
26325;SDS011;14032;52.510;7.342;2023-07-29T00:47:39;21.00;;;16.08;;
26325;SDS011;14032;52.510;7.342;2023-07-29T00:50:05;19.80;;;14.75;;
26325;SDS011;14032;52.510;7.342;2023-07-29T00:52:31;18.65;;;14.27;;
26325;SDS011;14032;52.510;7.342;2023-07-29T00:54:57;19.60;;;14.38;;
26325;SDS011;14032;52.510;7.342;2023-07-29T00:57:23;19.77;;;16.02;;
26325;SDS011;14032;52.510;7.342;2023-07-29T00:59:50;19.92;;;15.35;;
26325;SDS011;14032;52.510;7.342;2023-07-29T01:02:16;22.15;;;16.45;;
26325;SDS011;14032;52.510;7.342;2023-07-29T01:04:41;17.85;;;14.10;;
26325;SDS011;14032;52.510;7.342;2023-07-29T01:10:02;16.75;;;14.52;;
26325;SDS011;14032;52.510;7.342;2023-07-29T01:17:51;18.27;;;13.23;;
26325;SDS011;14032;52.510;7.342;2023-07-29T01:20:20;18.20;;;13.77;;
26325;SDS011;14032;52.510;7.342;2023-07-29T01:22:48;17.02;;;12.63;;
26325;SDS011;14032;52.510;7.342;2023-07-29T01:25:14;24.77;;;14.73;;
26325;SDS011;14032;52.510;7.342;2023-07-29T01:27:41;16.88;;;13.43;;
26325;SDS011;14032;52.510;7.342;2023-07-29T01:30:08;20.15;;;13.05;;
26325;SDS011;14032;52.510;7.342;2023-07-29T01:35:05;14.98;;;11.88;;
26325;SDS011;14032;52.510;7.342;2023-07-29T01:37:33;16.08;;;11.93;;
26325;SDS011;14032;52.510;7.342;2023-07-29T01:40:01;15.88;;;11.07;;
26325;SDS011;14032;52.510;7.342;2023-07-29T01:42:28;15.50;;;12.15;;
26325;SDS011;14032;52.510;7.342;2023-07-29T01:44:55;14.23;;;11.55;;
26325;SDS011;14032;52.510;7.342;2023-07-29T01:47:21;14.45;;;11.77;;
26325;SDS011;14032;52.510;7.342;2023-07-29T01:49:47;13.50;;;10.85;;
26325;SDS011;14032;52.510;7.342;2023-07-29T01:52:13;15.38;;;10.85;;
26325;SDS011;14032;52.510;7.342;2023-07-29T01:54:38;14.95;;;11.20;;
26325;SDS011;14032;52.510;7.342;2023-07-29T01:57:04;14.43;;;10.40;;
26325;SDS011;14032;52.510;7.342;2023-07-29T01:59:29;14.30;;;10.05;;
26325;SDS011;14032;52.510;7.342;2023-07-29T02:01:55;14.52;;;10.15;;
26325;SDS011;14032;52.510;7.342;2023-07-29T02:04:20;16.20;;;11.18;;
26325;SDS011;14032;52.510;7.342;2023-07-29T02:06:47;12.95;;;10.75;;
26325;SDS011;14032;52.510;7.342;2023-07-29T02:09:15;17.25;;;11.68;;
26325;SDS011;14032;52.510;7.342;2023-07-29T02:11:40;14.23;;;11.35;;
26325;SDS011;14032;52.510;7.342;2023-07-29T02:14:06;15.27;;;11.73;;
26325;SDS011;14032;52.510;7.342;2023-07-29T02:16:31;12.50;;;10.88;;
26325;SDS011;14032;52.510;7.342;2023-07-29T02:18:59;13.10;;;11.13;;
26325;SDS011;14032;52.510;7.342;2023-07-29T02:21:25;16.65;;;12.10;;
26325;SDS011;14032;52.510;7.342;2023-07-29T02:23:50;17.20;;;11.65;;
26325;SDS011;14032;52.510;7.342;2023-07-29T02:26:16;15.35;;;11.80;;
26325;SDS011;14032;52.510;7.342;2023-07-29T02:28:42;14.18;;;10.77;;
26325;SDS011;14032;52.510;7.342;2023-07-29T02:33:45;13.45;;;10.35;;
26325;SDS011;14032;52.510;7.342;2023-07-29T02:36:13;10.73;;;9.60;;
26325;SDS011;14032;52.510;7.342;2023-07-29T02:38:39;14.25;;;9.55;;
26325;SDS011;14032;52.510;7.342;2023-07-29T02:41:05;15.50;;;10.15;;
26325;SDS011;14032;52.510;7.342;2023-07-29T02:43:31;12.48;;;9.70;;
26325;SDS011;14032;52.510;7.342;2023-07-29T02:45:57;12.60;;;8.98;;
26325;SDS011;14032;52.510;7.342;2023-07-29T02:48:22;11.73;;;9.63;;
26325;SDS011;14032;52.510;7.342;2023-07-29T02:50:48;11.13;;;8.85;;
26325;SDS011;14032;52.510;7.342;2023-07-29T02:53:14;11.05;;;8.82;;
26325;SDS011;14032;52.510;7.342;2023-07-29T02:55:40;10.45;;;8.40;;
26325;SDS011;14032;52.510;7.342;2023-07-29T02:58:05;10.18;;;8.70;;
26325;SDS011;14032;52.510;7.342;2023-07-29T03:00:31;11.30;;;9.43;;
26325;SDS011;14032;52.510;7.342;2023-07-29T03:02:58;13.18;;;8.73;;
26325;SDS011;14032;52.510;7.342;2023-07-29T03:05:23;14.55;;;9.38;;
26325;SDS011;14032;52.510;7.342;2023-07-29T03:07:49;15.18;;;10.20;;
26325;SDS011;14032;52.510;7.342;2023-07-29T03:10:15;12.57;;;9.43;;
26325;SDS011;14032;52.510;7.342;2023-07-29T03:12:40;12.90;;;10.05;;
26325;SDS011;14032;52.510;7.342;2023-07-29T03:15:06;13.07;;;9.90;;
26325;SDS011;14032;52.510;7.342;2023-07-29T03:17:32;14.23;;;10.32;;
26325;SDS011;14032;52.510;7.342;2023-07-29T03:19:58;9.85;;;8.80;;
26325;SDS011;14032;52.510;7.342;2023-07-29T03:22:23;11.18;;;9.73;;
26325;SDS011;14032;52.510;7.342;2023-07-29T03:24:49;12.77;;;11.02;;
26325;SDS011;14032;52.510;7.342;2023-07-29T03:27:14;14.65;;;10.88;;
26325;SDS011;14032;52.510;7.342;2023-07-29T03:29:41;12.82;;;10.45;;
26325;SDS011;14032;52.510;7.342;2023-07-29T03:32:06;12.50;;;9.60;;
26325;SDS011;14032;52.510;7.342;2023-07-29T03:34:32;15.65;;;10.65;;
26325;SDS011;14032;52.510;7.342;2023-07-29T03:36:58;11.98;;;9.23;;
26325;SDS011;14032;52.510;7.342;2023-07-29T03:39:24;12.10;;;10.27;;
26325;SDS011;14032;52.510;7.342;2023-07-29T03:41:50;12.32;;;10.05;;
26325;SDS011;14032;52.510;7.342;2023-07-29T03:44:15;17.40;;;11.57;;
26325;SDS011;14032;52.510;7.342;2023-07-29T03:46:42;21.20;;;11.63;;
26325;SDS011;14032;52.510;7.342;2023-07-29T03:49:07;14.88;;;11.55;;
26325;SDS011;14032;52.510;7.342;2023-07-29T03:51:33;14.35;;;10.77;;
26325;SDS011;14032;52.510;7.342;2023-07-29T03:53:58;15.27;;;10.43;;
26325;SDS011;14032;52.510;7.342;2023-07-29T03:56:24;15.23;;;10.75;;
26325;SDS011;14032;52.510;7.342;2023-07-29T03:58:49;12.02;;;10.48;;
26325;SDS011;14032;52.510;7.342;2023-07-29T04:01:15;13.32;;;10.60;;
26325;SDS011;14032;52.510;7.342;2023-07-29T04:03:41;15.20;;;11.00;;
26325;SDS011;14032;52.510;7.342;2023-07-29T04:06:06;13.23;;;10.80;;
26325;SDS011;14032;52.510;7.342;2023-07-29T04:08:32;14.43;;;11.13;;
26325;SDS011;14032;52.510;7.342;2023-07-29T04:10:58;16.40;;;10.93;;
26325;SDS011;14032;52.510;7.342;2023-07-29T04:13:23;13.07;;;10.35;;
26325;SDS011;14032;52.510;7.342;2023-07-29T04:15:49;14.73;;;9.98;;
26325;SDS011;14032;52.510;7.342;2023-07-29T04:18:15;12.25;;;9.20;;
26325;SDS011;14032;52.510;7.342;2023-07-29T04:20:40;11.32;;;8.68;;
26325;SDS011;14032;52.510;7.342;2023-07-29T04:23:06;12.73;;;9.20;;
26325;SDS011;14032;52.510;7.342;2023-07-29T04:25:31;13.82;;;11.00;;
26325;SDS011;14032;52.510;7.342;2023-07-29T04:27:57;11.77;;;9.32;;
26325;SDS011;14032;52.510;7.342;2023-07-29T04:30:23;13.63;;;10.48;;
26325;SDS011;14032;52.510;7.342;2023-07-29T04:32:48;14.10;;;10.68;;
26325;SDS011;14032;52.510;7.342;2023-07-29T04:35:15;15.73;;;10.27;;
26325;SDS011;14032;52.510;7.342;2023-07-29T04:37:40;13.70;;;10.88;;
26325;SDS011;14032;52.510;7.342;2023-07-29T04:40:06;15.43;;;11.02;;
26325;SDS011;14032;52.510;7.342;2023-07-29T04:42:32;12.48;;;10.45;;
26325;SDS011;14032;52.510;7.342;2023-07-29T04:44:57;12.20;;;10.10;;
26325;SDS011;14032;52.510;7.342;2023-07-29T04:47:23;15.30;;;10.27;;
26325;SDS011;14032;52.510;7.342;2023-07-29T04:49:49;12.35;;;9.88;;
26325;SDS011;14032;52.510;7.342;2023-07-29T04:52:14;14.25;;;10.48;;
26325;SDS011;14032;52.510;7.342;2023-07-29T04:54:40;10.93;;;8.65;;
26325;SDS011;14032;52.510;7.342;2023-07-29T04:57:06;13.13;;;9.10;;
26325;SDS011;14032;52.510;7.342;2023-07-29T04:59:31;11.75;;;9.38;;
26325;SDS011;14032;52.510;7.342;2023-07-29T05:01:57;12.18;;;9.40;;
26325;SDS011;14032;52.510;7.342;2023-07-29T05:04:23;11.65;;;9.48;;
26325;SDS011;14032;52.510;7.342;2023-07-29T05:06:48;11.30;;;8.80;;
26325;SDS011;14032;52.510;7.342;2023-07-29T05:09:17;10.27;;;8.32;;
26325;SDS011;14032;52.510;7.342;2023-07-29T05:11:44;12.55;;;8.73;;
26325;SDS011;14032;52.510;7.342;2023-07-29T05:14:10;13.65;;;8.80;;
26325;SDS011;14032;52.510;7.342;2023-07-29T05:16:37;11.98;;;8.65;;
26325;SDS011;14032;52.510;7.342;2023-07-29T05:19:03;12.30;;;7.82;;
26325;SDS011;14032;52.510;7.342;2023-07-29T05:21:29;10.95;;;8.23;;
26325;SDS011;14032;52.510;7.342;2023-07-29T05:23:55;11.90;;;9.27;;
26325;SDS011;14032;52.510;7.342;2023-07-29T05:26:22;10.95;;;8.07;;
26325;SDS011;14032;52.510;7.342;2023-07-29T05:28:49;11.68;;;8.60;;
26325;SDS011;14032;52.510;7.342;2023-07-29T05:31:14;12.52;;;8.00;;
26325;SDS011;14032;52.510;7.342;2023-07-29T05:33:40;15.93;;;9.23;;
26325;SDS011;14032;52.510;7.342;2023-07-29T05:36:05;11.30;;;7.97;;
26325;SDS011;14032;52.510;7.342;2023-07-29T05:38:31;13.77;;;8.25;;
26325;SDS011;14032;52.510;7.342;2023-07-29T05:40:57;13.43;;;8.45;;
26325;SDS011;14032;52.510;7.342;2023-07-29T05:43:24;11.70;;;8.95;;
26325;SDS011;14032;52.510;7.342;2023-07-29T05:45:49;12.52;;;9.25;;
26325;SDS011;14032;52.510;7.342;2023-07-29T05:48:16;13.43;;;9.13;;
26325;SDS011;14032;52.510;7.342;2023-07-29T05:50:41;12.95;;;8.35;;
26325;SDS011;14032;52.510;7.342;2023-07-29T05:55:42;12.98;;;9.23;;
26325;SDS011;14032;52.510;7.342;2023-07-29T05:58:08;11.70;;;8.15;;
26325;SDS011;14032;52.510;7.342;2023-07-29T06:00:34;10.57;;;8.35;;
26325;SDS011;14032;52.510;7.342;2023-07-29T06:03:03;10.85;;;7.97;;
26325;SDS011;14032;52.510;7.342;2023-07-29T06:05:31;9.00;;;7.13;;
26325;SDS011;14032;52.510;7.342;2023-07-29T06:08:00;12.00;;;6.55;;
26325;SDS011;14032;52.510;7.342;2023-07-29T06:10:25;7.97;;;6.70;;
26325;SDS011;14032;52.510;7.342;2023-07-29T06:12:51;12.50;;;6.65;;
26325;SDS011;14032;52.510;7.342;2023-07-29T06:15:16;11.50;;;6.80;;
26325;SDS011;14032;52.510;7.342;2023-07-29T06:17:42;12.45;;;7.05;;
26325;SDS011;14032;52.510;7.342;2023-07-29T06:20:08;9.65;;;7.55;;
26325;SDS011;14032;52.510;7.342;2023-07-29T06:22:34;15.40;;;7.53;;
26325;SDS011;14032;52.510;7.342;2023-07-29T06:24:59;10.23;;;6.75;;
26325;SDS011;14032;52.510;7.342;2023-07-29T06:27:25;10.82;;;7.20;;
26325;SDS011;14032;52.510;7.342;2023-07-29T06:29:51;11.45;;;7.45;;
26325;SDS011;14032;52.510;7.342;2023-07-29T06:32:16;17.30;;;7.43;;
26325;SDS011;14032;52.510;7.342;2023-07-29T06:34:42;11.48;;;7.95;;
26325;SDS011;14032;52.510;7.342;2023-07-29T06:37:07;11.63;;;8.10;;
26325;SDS011;14032;52.510;7.342;2023-07-29T06:39:33;18.27;;;8.63;;
26325;SDS011;14032;52.510;7.342;2023-07-29T06:41:58;13.95;;;8.43;;
26325;SDS011;14032;52.510;7.342;2023-07-29T06:44:24;11.38;;;7.35;;
26325;SDS011;14032;52.510;7.342;2023-07-29T06:46:50;12.90;;;7.55;;
26325;SDS011;14032;52.510;7.342;2023-07-29T06:49:15;12.05;;;8.20;;
26325;SDS011;14032;52.510;7.342;2023-07-29T06:51:41;11.57;;;7.72;;
26325;SDS011;14032;52.510;7.342;2023-07-29T06:54:06;11.82;;;7.20;;
26325;SDS011;14032;52.510;7.342;2023-07-29T06:56:32;17.52;;;7.80;;
26325;SDS011;14032;52.510;7.342;2023-07-29T06:58:57;12.27;;;7.80;;
26325;SDS011;14032;52.510;7.342;2023-07-29T07:01:23;10.95;;;7.60;;
26325;SDS011;14032;52.510;7.342;2023-07-29T07:03:49;11.07;;;7.82;;
26325;SDS011;14032;52.510;7.342;2023-07-29T07:06:14;10.10;;;7.55;;
26325;SDS011;14032;52.510;7.342;2023-07-29T07:08:40;9.60;;;7.35;;
26325;SDS011;14032;52.510;7.342;2023-07-29T07:11:06;10.15;;;6.15;;
26325;SDS011;14032;52.510;7.342;2023-07-29T07:13:32;10.52;;;6.90;;
26325;SDS011;14032;52.510;7.342;2023-07-29T07:15:59;9.27;;;6.32;;
26325;SDS011;14032;52.510;7.342;2023-07-29T07:18:25;11.25;;;5.53;;
26325;SDS011;14032;52.510;7.342;2023-07-29T07:20:50;8.25;;;6.18;;
26325;SDS011;14032;52.510;7.342;2023-07-29T07:23:18;9.32;;;5.88;;
26325;SDS011;14032;52.510;7.342;2023-07-29T07:25:43;8.10;;;5.07;;
26325;SDS011;14032;52.510;7.342;2023-07-29T07:28:09;12.75;;;5.68;;
26325;SDS011;14032;52.510;7.342;2023-07-29T07:33:08;6.25;;;4.75;;
26325;SDS011;14032;52.510;7.342;2023-07-29T07:35:34;6.55;;;4.60;;
26325;SDS011;14032;52.510;7.342;2023-07-29T07:38:00;6.45;;;4.45;;
26325;SDS011;14032;52.510;7.342;2023-07-29T07:40:28;4.85;;;3.50;;
26325;SDS011;14032;52.510;7.342;2023-07-29T07:42:55;5.82;;;4.15;;
26325;SDS011;14032;52.510;7.342;2023-07-29T07:45:21;6.30;;;4.03;;
26325;SDS011;14032;52.510;7.342;2023-07-29T07:47:46;8.10;;;4.53;;
26325;SDS011;14032;52.510;7.342;2023-07-29T07:50:13;5.13;;;4.25;;
26325;SDS011;14032;52.510;7.342;2023-07-29T07:52:40;9.80;;;3.97;;
26325;SDS011;14032;52.510;7.342;2023-07-29T07:55:05;5.80;;;4.25;;
26325;SDS011;14032;52.510;7.342;2023-07-29T07:57:31;4.40;;;3.70;;
26325;SDS011;14032;52.510;7.342;2023-07-29T07:59:57;6.40;;;3.78;;
26325;SDS011;14032;52.510;7.342;2023-07-29T08:02:22;8.75;;;3.80;;
26325;SDS011;14032;52.510;7.342;2023-07-29T08:04:48;4.15;;;3.22;;
26325;SDS011;14032;52.510;7.342;2023-07-29T08:07:13;5.07;;;3.70;;
26325;SDS011;14032;52.510;7.342;2023-07-29T08:09:39;5.25;;;3.72;;
26325;SDS011;14032;52.510;7.342;2023-07-29T08:12:04;6.30;;;3.92;;
26325;SDS011;14032;52.510;7.342;2023-07-29T08:14:31;5.68;;;3.13;;
26325;SDS011;14032;52.510;7.342;2023-07-29T08:16:58;5.25;;;3.72;;
26325;SDS011;14032;52.510;7.342;2023-07-29T08:19:23;6.28;;;3.58;;
26325;SDS011;14032;52.510;7.342;2023-07-29T08:21:49;7.60;;;3.45;;
26325;SDS011;14032;52.510;7.342;2023-07-29T08:24:14;9.95;;;4.18;;
26325;SDS011;14032;52.510;7.342;2023-07-29T08:26:40;5.65;;;3.67;;
26325;SDS011;14032;52.510;7.342;2023-07-29T08:29:05;5.63;;;3.83;;
26325;SDS011;14032;52.510;7.342;2023-07-29T08:31:31;5.38;;;3.15;;
26325;SDS011;14032;52.510;7.342;2023-07-29T08:33:58;8.05;;;3.88;;
26325;SDS011;14032;52.510;7.342;2023-07-29T08:36:26;6.03;;;3.80;;
26325;SDS011;14032;52.510;7.342;2023-07-29T08:38:53;5.10;;;3.20;;
26325;SDS011;14032;52.510;7.342;2023-07-29T08:41:25;4.47;;;3.10;;
26325;SDS011;14032;52.510;7.342;2023-07-29T08:44:11;5.00;;;3.45;;
26325;SDS011;14032;52.510;7.342;2023-07-29T08:46:43;7.43;;;3.65;;
26325;SDS011;14032;52.510;7.342;2023-07-29T08:49:11;9.63;;;3.28;;
26325;SDS011;14032;52.510;7.342;2023-07-29T08:51:38;5.45;;;2.70;;
26325;SDS011;14032;52.510;7.342;2023-07-29T08:54:06;5.30;;;2.80;;
26325;SDS011;14032;52.510;7.342;2023-07-29T08:56:32;5.03;;;2.45;;
26325;SDS011;14032;52.510;7.342;2023-07-29T08:58:58;6.57;;;2.97;;
26325;SDS011;14032;52.510;7.342;2023-07-29T09:01:27;8.35;;;2.97;;
26325;SDS011;14032;52.510;7.342;2023-07-29T09:03:53;6.78;;;3.03;;
26325;SDS011;14032;52.510;7.342;2023-07-29T09:06:18;4.50;;;2.50;;
26325;SDS011;14032;52.510;7.342;2023-07-29T09:08:46;5.65;;;2.90;;
26325;SDS011;14032;52.510;7.342;2023-07-29T09:11:14;7.88;;;2.50;;
26325;SDS011;14032;52.510;7.342;2023-07-29T09:13:42;5.25;;;2.30;;
26325;SDS011;14032;52.510;7.342;2023-07-29T09:16:09;6.05;;;2.67;;
26325;SDS011;14032;52.510;7.342;2023-07-29T09:18:34;5.30;;;2.35;;
26325;SDS011;14032;52.510;7.342;2023-07-29T09:21:00;8.55;;;2.58;;
26325;SDS011;14032;52.510;7.342;2023-07-29T09:23:26;4.38;;;2.42;;
26325;SDS011;14032;52.510;7.342;2023-07-29T09:26:00;4.70;;;2.40;;
26325;SDS011;14032;52.510;7.342;2023-07-29T09:28:27;5.15;;;2.50;;
26325;SDS011;14032;52.510;7.342;2023-07-29T09:31:02;4.75;;;2.50;;
26325;SDS011;14032;52.510;7.342;2023-07-29T09:33:35;7.47;;;2.75;;
26325;SDS011;14032;52.510;7.342;2023-07-29T09:36:02;6.70;;;2.60;;
26325;SDS011;14032;52.510;7.342;2023-07-29T09:38:34;5.20;;;2.05;;
26325;SDS011;14032;52.510;7.342;2023-07-29T09:41:00;7.70;;;2.40;;
26325;SDS011;14032;52.510;7.342;2023-07-29T09:43:30;5.93;;;2.55;;
26325;SDS011;14032;52.510;7.342;2023-07-29T09:46:04;3.03;;;1.98;;
26325;SDS011;14032;52.510;7.342;2023-07-29T09:48:32;6.22;;;2.30;;
26325;SDS011;14032;52.510;7.342;2023-07-29T09:50:59;3.30;;;1.73;;
26325;SDS011;14032;52.510;7.342;2023-07-29T09:53:24;2.15;;;1.52;;
26325;SDS011;14032;52.510;7.342;2023-07-29T09:55:53;10.07;;;2.10;;
26325;SDS011;14032;52.510;7.342;2023-07-29T09:58:25;2.67;;;1.50;;
26325;SDS011;14032;52.510;7.342;2023-07-29T10:00:52;3.10;;;2.03;;
26325;SDS011;14032;52.510;7.342;2023-07-29T10:03:19;6.13;;;1.50;;
26325;SDS011;14032;52.510;7.342;2023-07-29T10:05:46;5.43;;;1.65;;
26325;SDS011;14032;52.510;7.342;2023-07-29T10:08:12;4.85;;;1.30;;
26325;SDS011;14032;52.510;7.342;2023-07-29T10:10:41;4.63;;;1.45;;
26325;SDS011;14032;52.510;7.342;2023-07-29T10:13:07;4.05;;;1.60;;
26325;SDS011;14032;52.510;7.342;2023-07-29T10:15:34;4.90;;;1.55;;
26325;SDS011;14032;52.510;7.342;2023-07-29T10:18:01;5.38;;;1.90;;
26325;SDS011;14032;52.510;7.342;2023-07-29T10:20:30;3.33;;;1.38;;
26325;SDS011;14032;52.510;7.342;2023-07-29T10:22:58;4.13;;;1.67;;
26325;SDS011;14032;52.510;7.342;2023-07-29T10:25:26;2.72;;;1.50;;
26325;SDS011;14032;52.510;7.342;2023-07-29T10:28:05;9.38;;;1.25;;
26325;SDS011;14032;52.510;7.342;2023-07-29T10:30:32;3.17;;;1.40;;
26325;SDS011;14032;52.510;7.342;2023-07-29T10:32:58;6.63;;;1.65;;
26325;SDS011;14032;52.510;7.342;2023-07-29T10:35:27;3.88;;;1.35;;
26325;SDS011;14032;52.510;7.342;2023-07-29T10:37:53;6.53;;;1.60;;
26325;SDS011;14032;52.510;7.342;2023-07-29T10:40:20;2.53;;;1.23;;
26325;SDS011;14032;52.510;7.342;2023-07-29T10:42:59;2.50;;;1.48;;
26325;SDS011;14032;52.510;7.342;2023-07-29T10:45:41;5.28;;;1.70;;
26325;SDS011;14032;52.510;7.342;2023-07-29T10:48:11;2.38;;;1.50;;
26325;SDS011;14032;52.510;7.342;2023-07-29T10:50:37;16.02;;;2.03;;
26325;SDS011;14032;52.510;7.342;2023-07-29T10:53:04;5.55;;;1.95;;
26325;SDS011;14032;52.510;7.342;2023-07-29T11:00:33;2.20;;;1.40;;
26325;SDS011;14032;52.510;7.342;2023-07-29T11:02:59;4.80;;;2.10;;
26325;SDS011;14032;52.510;7.342;2023-07-29T11:05:28;4.45;;;1.48;;
26325;SDS011;14032;52.510;7.342;2023-07-29T11:08:17;2.70;;;1.65;;
26325;SDS011;14032;52.510;7.342;2023-07-29T11:10:59;2.95;;;1.50;;
26325;SDS011;14032;52.510;7.342;2023-07-29T11:13:26;2.70;;;1.48;;
26325;SDS011;14032;52.510;7.342;2023-07-29T11:15:53;2.88;;;1.58;;
26325;SDS011;14032;52.510;7.342;2023-07-29T11:18:21;4.40;;;1.58;;
26325;SDS011;14032;52.510;7.342;2023-07-29T11:20:47;2.75;;;1.70;;
26325;SDS011;14032;52.510;7.342;2023-07-29T11:23:13;4.80;;;1.70;;
26325;SDS011;14032;52.510;7.342;2023-07-29T11:25:39;5.40;;;1.75;;
26325;SDS011;14032;52.510;7.342;2023-07-29T11:28:05;4.40;;;1.60;;
26325;SDS011;14032;52.510;7.342;2023-07-29T11:30:31;3.53;;;1.80;;
26325;SDS011;14032;52.510;7.342;2023-07-29T11:32:57;4.63;;;1.48;;
26325;SDS011;14032;52.510;7.342;2023-07-29T11:35:23;1.95;;;1.45;;
26325;SDS011;14032;52.510;7.342;2023-07-29T11:37:50;2.80;;;1.75;;
26325;SDS011;14032;52.510;7.342;2023-07-29T11:40:17;2.72;;;1.65;;
26325;SDS011;14032;52.510;7.342;2023-07-29T11:42:43;3.47;;;1.50;;
26325;SDS011;14032;52.510;7.342;2023-07-29T11:45:09;6.43;;;1.58;;
26325;SDS011;14032;52.510;7.342;2023-07-29T11:47:35;3.35;;;1.70;;
26325;SDS011;14032;52.510;7.342;2023-07-29T11:50:05;4.63;;;2.10;;
26325;SDS011;14032;52.510;7.342;2023-07-29T11:52:34;3.10;;;1.80;;
26325;SDS011;14032;52.510;7.342;2023-07-29T11:55:06;4.70;;;2.13;;
26325;SDS011;14032;52.510;7.342;2023-07-29T11:57:36;4.30;;;2.53;;
26325;SDS011;14032;52.510;7.342;2023-07-29T12:00:03;3.33;;;2.22;;
26325;SDS011;14032;52.510;7.342;2023-07-29T12:02:31;5.30;;;2.50;;
26325;SDS011;14032;52.510;7.342;2023-07-29T12:04:58;2.83;;;2.00;;
26325;SDS011;14032;52.510;7.342;2023-07-29T12:07:26;5.95;;;2.35;;
26325;SDS011;14032;52.510;7.342;2023-07-29T12:09:52;4.72;;;2.35;;
26325;SDS011;14032;52.510;7.342;2023-07-29T12:12:18;5.25;;;2.50;;
26325;SDS011;14032;52.510;7.342;2023-07-29T12:14:46;3.42;;;2.20;;
26325;SDS011;14032;52.510;7.342;2023-07-29T12:17:15;3.30;;;2.10;;
26325;SDS011;14032;52.510;7.342;2023-07-29T12:19:41;5.00;;;2.33;;
26325;SDS011;14032;52.510;7.342;2023-07-29T12:22:09;5.15;;;2.35;;
26325;SDS011;14032;52.510;7.342;2023-07-29T12:24:40;5.38;;;2.65;;
26325;SDS011;14032;52.510;7.342;2023-07-29T12:27:10;3.88;;;2.50;;
26325;SDS011;14032;52.510;7.342;2023-07-29T12:29:43;3.22;;;2.03;;
26325;SDS011;14032;52.510;7.342;2023-07-29T12:32:11;5.43;;;2.15;;
26325;SDS011;14032;52.510;7.342;2023-07-29T12:34:39;2.75;;;2.03;;
26325;SDS011;14032;52.510;7.342;2023-07-29T12:37:05;2.92;;;1.90;;
26325;SDS011;14032;52.510;7.342;2023-07-29T12:39:32;3.13;;;1.83;;
26325;SDS011;14032;52.510;7.342;2023-07-29T12:41:59;4.60;;;2.22;;
26325;SDS011;14032;52.510;7.342;2023-07-29T12:44:26;3.78;;;2.13;;
26325;SDS011;14032;52.510;7.342;2023-07-29T12:46:55;3.53;;;2.42;;
26325;SDS011;14032;52.510;7.342;2023-07-29T12:49:22;3.15;;;1.77;;
26325;SDS011;14032;52.510;7.342;2023-07-29T12:54:21;7.10;;;2.10;;
26325;SDS011;14032;52.510;7.342;2023-07-29T12:56:46;3.40;;;2.22;;
26325;SDS011;14032;52.510;7.342;2023-07-29T12:59:12;5.00;;;2.25;;
26325;SDS011;14032;52.510;7.342;2023-07-29T13:01:38;2.42;;;2.20;;
26325;SDS011;14032;52.510;7.342;2023-07-29T13:04:03;3.15;;;2.22;;
26325;SDS011;14032;52.510;7.342;2023-07-29T13:06:29;4.60;;;2.30;;
26325;SDS011;14032;52.510;7.342;2023-07-29T13:08:55;6.68;;;2.50;;
26325;SDS011;14032;52.510;7.342;2023-07-29T13:11:21;3.33;;;2.30;;
26325;SDS011;14032;52.510;7.342;2023-07-29T13:13:47;5.20;;;1.90;;
26325;SDS011;14032;52.510;7.342;2023-07-29T13:16:12;3.45;;;1.90;;
26325;SDS011;14032;52.510;7.342;2023-07-29T13:18:38;3.08;;;1.75;;
26325;SDS011;14032;52.510;7.342;2023-07-29T13:21:04;3.75;;;1.92;;
26325;SDS011;14032;52.510;7.342;2023-07-29T13:23:30;2.67;;;1.58;;
26325;SDS011;14032;52.510;7.342;2023-07-29T13:25:56;3.35;;;1.98;;
26325;SDS011;14032;52.510;7.342;2023-07-29T13:28:22;16.42;;;1.90;;
26325;SDS011;14032;52.510;7.342;2023-07-29T13:30:48;6.00;;;2.25;;
26325;SDS011;14032;52.510;7.342;2023-07-29T13:33:14;5.72;;;1.90;;
26325;SDS011;14032;52.510;7.342;2023-07-29T13:35:39;6.95;;;1.98;;
26325;SDS011;14032;52.510;7.342;2023-07-29T13:38:05;5.95;;;1.77;;
26325;SDS011;14032;52.510;7.342;2023-07-29T13:40:31;4.95;;;1.90;;
26325;SDS011;14032;52.510;7.342;2023-07-29T13:42:57;2.70;;;1.75;;
26325;SDS011;14032;52.510;7.342;2023-07-29T13:45:22;2.47;;;1.70;;
26325;SDS011;14032;52.510;7.342;2023-07-29T13:47:48;4.30;;;1.55;;
26325;SDS011;14032;52.510;7.342;2023-07-29T13:50:15;3.40;;;1.67;;
26325;SDS011;14032;52.510;7.342;2023-07-29T13:52:41;2.72;;;1.40;;
26325;SDS011;14032;52.510;7.342;2023-07-29T13:55:06;3.53;;;1.50;;
26325;SDS011;14032;52.510;7.342;2023-07-29T13:57:32;2.85;;;1.60;;
26325;SDS011;14032;52.510;7.342;2023-07-29T13:59:58;4.35;;;2.00;;
26325;SDS011;14032;52.510;7.342;2023-07-29T14:02:23;2.50;;;1.48;;
26325;SDS011;14032;52.510;7.342;2023-07-29T14:04:51;5.25;;;1.60;;
26325;SDS011;14032;52.510;7.342;2023-07-29T14:07:17;3.30;;;1.55;;
26325;SDS011;14032;52.510;7.342;2023-07-29T14:09:42;5.18;;;1.50;;
26325;SDS011;14032;52.510;7.342;2023-07-29T14:12:08;4.60;;;1.70;;
26325;SDS011;14032;52.510;7.342;2023-07-29T14:14:37;4.28;;;1.85;;
26325;SDS011;14032;52.510;7.342;2023-07-29T14:17:03;5.15;;;1.73;;
26325;SDS011;14032;52.510;7.342;2023-07-29T14:19:29;3.47;;;1.63;;
26325;SDS011;14032;52.510;7.342;2023-07-29T14:21:54;7.93;;;2.10;;
26325;SDS011;14032;52.510;7.342;2023-07-29T14:24:20;3.25;;;1.98;;
26325;SDS011;14032;52.510;7.342;2023-07-29T14:26:47;2.50;;;1.50;;
26325;SDS011;14032;52.510;7.342;2023-07-29T14:29:12;3.75;;;1.98;;
26325;SDS011;14032;52.510;7.342;2023-07-29T14:31:38;5.18;;;1.83;;
26325;SDS011;14032;52.510;7.342;2023-07-29T14:34:03;6.15;;;1.90;;
26325;SDS011;14032;52.510;7.342;2023-07-29T14:39:04;3.30;;;2.08;;
26325;SDS011;14032;52.510;7.342;2023-07-29T14:41:30;3.70;;;2.00;;
26325;SDS011;14032;52.510;7.342;2023-07-29T14:46:30;1.90;;;1.70;;
26325;SDS011;14032;52.510;7.342;2023-07-29T14:48:56;2.72;;;1.73;;
26325;SDS011;14032;52.510;7.342;2023-07-29T14:51:21;6.45;;;1.80;;
26325;SDS011;14032;52.510;7.342;2023-07-29T14:53:48;2.45;;;1.63;;
26325;SDS011;14032;52.510;7.342;2023-07-29T14:56:14;1.55;;;1.00;;
26325;SDS011;14032;52.510;7.342;2023-07-29T15:09:02;1.52;;;0.63;;
26325;SDS011;14032;52.510;7.342;2023-07-29T15:24:23;4.95;;;0.73;;
26325;SDS011;14032;52.510;7.342;2023-07-29T15:26:49;2.65;;;0.70;;
26325;SDS011;14032;52.510;7.342;2023-07-29T15:29:14;0.80;;;0.57;;